Time;durP1;ratioP1;P1;durP2;ratioP2;P2;SDS_P1;SDS_P2;PMS_P1;PMS_P2;Temp;Humidity;BMP_temperature;BMP_pressure;BME280_temperature;BME280_humidity;BME280_pressure;Samples;Min_cycle;Max_cycle;Signal;HPM_P1;HPM_P2
2023/09/09 00:01:11;;;;;;;15.23;9.30;;;19.60;99.90;;;;;;5244006;28;20206;-44
2023/09/09 00:03:42;;;;;;;10.00;8.60;;;19.50;99.90;;;;;;5242894;28;20187;-46
2023/09/09 00:06:13;;;;;;;12.80;9.00;;;19.50;99.90;;;;;;5235387;28;20499;-44
2023/09/09 00:08:44;;;;;;;13.77;9.27;;;19.40;99.90;;;;;;5237124;28;20429;-44
2023/09/09 00:11:14;;;;;;;9.50;8.53;;;19.40;99.90;;;;;;5246528;28;20202;-44
2023/09/09 00:13:45;;;;;;;11.37;8.50;;;19.40;99.90;;;;;;5228341;28;20234;-45
2023/09/09 00:16:16;;;;;;;9.90;8.60;;;19.30;99.90;;;;;;5240388;28;20171;-45
2023/09/09 00:18:47;;;;;;;15.70;9.43;;;19.30;99.90;;;;;;5251662;28;20431;-44
2023/09/09 00:21:17;;;;;;;10.90;8.40;;;19.20;99.90;;;;;;5240530;28;20548;-44
2023/09/09 00:23:48;;;;;;;11.70;8.90;;;19.20;99.90;;;;;;5257454;28;20186;-45
2023/09/09 00:26:18;;;;;;;14.63;9.60;;;19.20;99.90;;;;;;5243579;28;20182;-44
2023/09/09 00:28:49;;;;;;;11.43;8.93;;;19.10;99.90;;;;;;5244701;28;20191;-47
2023/09/09 00:31:20;;;;;;;10.90;8.50;;;19.10;99.90;;;;;;5240936;28;20543;-44
2023/09/09 00:33:52;;;;;;;13.47;9.27;;;19.10;99.90;;;;;;5246052;28;20213;-45
2023/09/09 00:36:23;;;;;;;12.07;8.60;;;19.10;99.90;;;;;;5233303;28;20229;-46
2023/09/09 00:38:54;;;;;;;9.50;8.57;;;19.00;99.90;;;;;;5240359;28;20833;-44
2023/09/09 00:41:24;;;;;;;8.07;7.37;;;19.00;99.90;;;;;;5257170;28;20194;-45
2023/09/09 00:43:55;;;;;;;12.07;8.97;;;19.00;99.90;;;;;;5240131;28;20232;-46
2023/09/09 00:46:26;;;;;;;15.07;10.10;;;18.90;99.90;;;;;;5224608;28;20187;-44
2023/09/09 00:48:56;;;;;;;12.67;9.80;;;18.90;99.90;;;;;;5247096;28;20182;-45
2023/09/09 00:51:27;;;;;;;10.77;8.63;;;18.90;99.90;;;;;;5245558;28;20221;-45
2023/09/09 00:53:58;;;;;;;12.53;8.60;;;18.80;99.90;;;;;;5249646;28;20507;-45
2023/09/09 00:56:28;;;;;;;11.33;9.00;;;18.80;99.90;;;;;;5243272;28;20178;-45
2023/09/09 00:58:59;;;;;;;10.07;8.97;;;18.80;99.90;;;;;;5244498;28;20253;-45
2023/09/09 01:01:31;;;;;;;12.23;8.90;;;18.80;99.90;;;;;;5247840;28;20213;-44
2023/09/09 01:04:01;;;;;;;15.43;9.80;;;18.80;99.90;;;;;;5244786;28;20667;-44
2023/09/09 01:06:32;;;;;;;16.20;9.70;;;18.70;99.90;;;;;;5241272;28;20461;-45
2023/09/09 01:09:06;;;;;;;11.33;9.13;;;18.70;99.90;;;;;;5250602;28;20240;-44
2023/09/09 01:11:37;;;;;;;10.43;9.30;;;18.70;99.90;;;;;;5254767;28;20239;-45
2023/09/09 01:14:08;;;;;;;15.00;9.80;;;18.70;99.90;;;;;;5251508;28;20856;-44
2023/09/09 01:16:42;;;;;;;10.93;9.73;;;18.70;99.90;;;;;;5246342;28;20199;-45
2023/09/09 01:19:15;;;;;;;11.80;9.07;;;18.70;99.90;;;;;;5224578;28;20460;-46
2023/09/09 01:21:47;;;;;;;17.77;9.23;;;18.60;99.90;;;;;;5238767;28;20560;-44
2023/09/09 01:24:19;;;;;;;11.17;8.90;;;18.60;99.90;;;;;;5238380;28;20527;-44
2023/09/09 01:26:50;;;;;;;11.20;9.80;;;18.60;99.90;;;;;;5246624;28;20574;-45
2023/09/09 01:29:21;;;;;;;13.10;9.80;;;18.60;99.90;;;;;;5231319;28;20448;-45
2023/09/09 01:31:51;;;;;;;14.73;10.13;;;18.50;99.90;;;;;;5244656;28;20556;-46
2023/09/09 01:34:22;;;;;;;12.27;9.63;;;18.50;99.90;;;;;;5236326;28;20229;-46
2023/09/09 01:42:14;;;;;;;11.63;8.70;;;18.40;99.90;;;;;;5288250;23;20507;-45
2023/09/09 01:44:46;;;;;;;15.27;9.30;;;18.40;99.90;;;;;;5161346;28;20463;-46
2023/09/09 01:47:16;;;;;;;13.43;9.47;;;18.40;99.90;;;;;;5163158;28;20432;-48
2023/09/09 01:49:47;;;;;;;11.93;10.03;;;18.40;99.90;;;;;;5164873;28;20432;-47
2023/09/09 01:52:18;;;;;;;17.50;10.80;;;18.30;99.90;;;;;;5154674;28;20205;-46
2023/09/09 01:54:49;;;;;;;12.27;9.40;;;18.30;99.90;;;;;;5157775;28;20236;-46
2023/09/09 01:57:21;;;;;;;11.07;9.37;;;18.30;99.90;;;;;;5153955;28;20232;-46
2023/09/09 01:59:54;;;;;;;11.40;9.07;;;18.30;99.90;;;;;;5154199;28;20184;-45
2023/09/09 02:02:24;;;;;;;13.70;9.30;;;18.30;99.90;;;;;;5161021;28;20805;-45
2023/09/09 02:04:55;;;;;;;14.60;10.00;;;18.30;99.90;;;;;;5155654;28;20495;-46
2023/09/09 02:07:27;;;;;;;10.63;8.80;;;18.20;99.90;;;;;;5155033;28;20190;-47
2023/09/09 02:09:57;;;;;;;10.13;9.10;;;18.20;99.90;;;;;;5156603;28;20230;-45
2023/09/09 02:12:29;;;;;;;13.67;9.57;;;18.30;99.90;;;;;;5157946;28;20456;-46
2023/09/09 02:15:00;;;;;;;9.33;8.43;;;18.20;99.90;;;;;;5139445;28;20292;-45
2023/09/09 02:17:31;;;;;;;13.00;10.13;;;18.20;99.90;;;;;;5157022;28;20549;-45
2023/09/09 02:20:05;;;;;;;12.13;9.60;;;18.10;99.90;;;;;;5158469;28;20181;-46
2023/09/09 02:22:35;;;;;;;12.83;9.10;;;18.10;99.90;;;;;;5154917;28;20276;-46
2023/09/09 02:25:08;;;;;;;14.73;10.57;;;18.00;99.90;;;;;;5158544;28;20448;-46
2023/09/09 02:27:38;;;;;;;12.17;9.60;;;18.00;99.90;;;;;;5161917;28;20277;-45
2023/09/09 02:30:09;;;;;;;15.00;10.03;;;18.00;99.90;;;;;;5156171;28;20446;-46
2023/09/09 02:32:43;;;;;;;13.07;9.47;;;17.90;99.90;;;;;;5155571;28;20189;-46
2023/09/09 02:35:14;;;;;;;12.07;10.07;;;17.90;99.90;;;;;;5158215;28;20220;-45
2023/09/09 02:37:45;;;;;;;11.67;9.87;;;17.90;99.90;;;;;;5160488;28;20849;-47
2023/09/09 02:40:16;;;;;;;12.77;9.60;;;17.80;99.90;;;;;;5157988;28;20433;-46
2023/09/09 02:42:47;;;;;;;16.67;10.47;;;17.80;99.90;;;;;;5154592;28;20272;-46
2023/09/09 02:45:17;;;;;;;14.20;10.50;;;17.80;99.90;;;;;;5158626;28;20186;-46
2023/09/09 02:47:48;;;;;;;15.70;10.00;;;17.80;99.90;;;;;;5154156;28;20660;-46
2023/09/09 02:50:19;;;;;;;15.27;10.50;;;17.80;99.90;;;;;;5154836;28;20182;-45
2023/09/09 02:52:50;;;;;;;13.23;9.83;;;17.80;99.90;;;;;;5152223;28;20192;-45
2023/09/09 02:55:21;;;;;;;11.80;9.43;;;17.80;99.90;;;;;;5149416;28;20681;-46
2023/09/09 02:57:52;;;;;;;15.07;10.83;;;17.80;99.90;;;;;;5159728;28;20531;-46
2023/09/09 03:00:22;;;;;;;14.13;10.20;;;17.80;99.90;;;;;;5161778;28;20689;-46
2023/09/09 03:02:53;;;;;;;13.90;10.70;;;17.80;99.90;;;;;;5149654;28;20185;-47
2023/09/09 03:05:24;;;;;;;12.63;10.10;;;17.70;99.90;;;;;;5154211;28;20190;-46
2023/09/09 03:07:57;;;;;;;11.50;10.30;;;17.70;99.90;;;;;;5152210;28;20177;-45
2023/09/09 03:10:28;;;;;;;13.77;10.17;;;17.70;99.90;;;;;;5163038;28;20220;-46
2023/09/09 03:12:59;;;;;;;17.20;10.90;;;17.70;99.90;;;;;;5154940;28;20802;-46
2023/09/09 03:15:30;;;;;;;13.87;10.60;;;17.70;99.90;;;;;;5152203;28;20209;-45
2023/09/09 03:18:00;;;;;;;14.40;10.13;;;17.70;99.90;;;;;;5158163;28;20177;-46
2023/09/09 03:20:31;;;;;;;17.10;11.10;;;17.70;99.90;;;;;;5159924;28;20893;-46
2023/09/09 03:23:02;;;;;;;15.20;11.60;;;17.70;99.90;;;;;;5160820;28;20177;-45
2023/09/09 03:25:33;;;;;;;16.47;10.80;;;17.60;99.90;;;;;;5151419;28;20184;-46
2023/09/09 03:28:03;;;;;;;11.80;10.60;;;17.60;99.90;;;;;;5155724;28;20316;-45
2023/09/09 03:30:55;;;;;;;17.90;11.10;;;17.60;99.90;;;;;;5153255;28;20274;-45
2023/09/09 03:33:27;;;;;;;16.60;11.80;;;17.50;99.90;;;;;;5156999;28;20204;-47
2023/09/09 03:35:58;;;;;;;15.43;11.43;;;17.60;99.90;;;;;;5154382;28;20437;-45
2023/09/09 03:38:29;;;;;;;13.67;10.90;;;17.60;99.90;;;;;;5157654;28;20436;-46
2023/09/09 03:40:59;;;;;;;14.43;10.77;;;17.50;99.90;;;;;;5150202;28;20210;-46
2023/09/09 03:43:30;;;;;;;14.33;11.70;;;17.50;99.90;;;;;;5176513;28;20805;-45
2023/09/09 03:46:01;;;;;;;18.20;11.73;;;17.50;99.90;;;;;;5158537;28;20188;-45
2023/09/09 03:48:32;;;;;;;13.70;11.50;;;17.50;99.90;;;;;;5155527;28;20189;-47
2023/09/09 03:51:06;;;;;;;17.87;11.30;;;17.50;99.90;;;;;;5157983;28;21014;-45
2023/09/09 03:53:40;;;;;;;15.67;11.77;;;17.50;99.90;;;;;;5146553;28;20466;-46
2023/09/09 03:56:11;;;;;;;16.53;11.43;;;17.50;99.90;;;;;;5160525;28;20519;-46
2023/09/09 03:58:42;;;;;;;18.87;11.60;;;17.40;99.90;;;;;;5133520;28;20527;-46
2023/09/09 04:01:13;;;;;;;18.47;12.20;;;17.40;99.90;;;;;;5152741;28;20629;-47
2023/09/09 04:03:44;;;;;;;13.57;10.77;;;17.40;99.90;;;;;;5155759;28;20192;-47
2023/09/09 04:06:17;;;;;;;15.17;11.37;;;17.40;99.90;;;;;;5138288;28;20805;-45
2023/09/09 04:08:49;;;;;;;14.17;11.73;;;17.40;99.90;;;;;;5156366;28;20657;-46
2023/09/09 04:11:20;;;;;;;15.47;12.10;;;17.30;99.90;;;;;;5149484;28;20455;-46
2023/09/09 04:13:52;;;;;;;15.50;10.90;;;17.30;99.90;;;;;;5151426;28;20492;-46
2023/09/09 04:16:25;;;;;;;17.80;12.77;;;17.30;99.90;;;;;;5147805;28;20186;-46
2023/09/09 04:18:56;;;;;;;14.23;11.67;;;17.30;99.90;;;;;;5153676;28;20448;-46
2023/09/09 04:21:26;;;;;;;12.90;11.17;;;17.30;99.90;;;;;;5165185;28;20467;-47
2023/09/09 04:23:57;;;;;;;16.20;11.73;;;17.30;99.90;;;;;;5158744;28;20186;-47
2023/09/09 04:26:28;;;;;;;13.77;11.73;;;17.40;99.90;;;;;;5156595;28;20554;-50
2023/09/09 04:29:00;;;;;;;16.63;12.37;;;17.30;99.90;;;;;;5160442;28;20181;-46
2023/09/09 04:31:30;;;;;;;14.43;11.60;;;17.30;99.90;;;;;;5157806;28;20201;-46
2023/09/09 04:34:01;;;;;;;17.00;11.80;;;17.30;99.90;;;;;;5160054;28;20467;-46
2023/09/09 04:36:32;;;;;;;19.50;11.13;;;17.30;99.90;;;;;;5159501;28;20649;-47
2023/09/09 04:39:03;;;;;;;17.67;12.60;;;17.30;99.90;;;;;;5153732;28;20534;-46
2023/09/09 04:41:33;;;;;;;14.80;12.17;;;17.30;99.90;;;;;;5152869;28;20217;-46
2023/09/09 04:44:04;;;;;;;17.73;12.77;;;17.30;99.90;;;;;;5149242;28;21041;-45
2023/09/09 04:46:35;;;;;;;17.73;12.83;;;17.30;99.90;;;;;;5155162;28;20549;-46
2023/09/09 04:49:06;;;;;;;16.10;12.73;;;17.30;99.90;;;;;;5150157;28;20205;-46
2023/09/09 04:51:37;;;;;;;25.70;13.20;;;17.30;99.90;;;;;;5158284;28;20209;-46
2023/09/09 04:54:07;;;;;;;11.80;10.60;;;17.30;99.90;;;;;;5150183;28;20259;-46
2023/09/09 04:56:39;;;;;;;18.53;12.07;;;17.30;99.90;;;;;;5155220;28;20260;-47
2023/09/09 04:59:10;;;;;;;14.83;12.20;;;17.30;99.90;;;;;;5153665;28;20173;-45
2023/09/09 05:01:41;;;;;;;17.90;12.67;;;17.30;99.90;;;;;;5155067;28;20461;-45
2023/09/09 05:04:15;;;;;;;17.40;12.13;;;17.30;99.90;;;;;;5153175;28;21538;-46
2023/09/09 05:06:46;;;;;;;20.13;12.10;;;17.30;99.90;;;;;;5153459;28;20429;-46
2023/09/09 05:09:17;;;;;;;18.63;12.00;;;17.40;99.90;;;;;;5156308;28;20446;-47
2023/09/09 05:11:48;;;;;;;14.70;12.30;;;17.40;99.90;;;;;;5156633;28;20236;-47
2023/09/09 05:14:19;;;;;;;15.20;12.10;;;17.50;99.90;;;;;;5155375;28;20198;-45
2023/09/09 05:16:49;;;;;;;16.43;12.60;;;17.60;99.90;;;;;;5154681;28;20185;-47
2023/09/09 05:19:22;;;;;;;18.67;12.13;;;17.80;99.90;;;;;;5158578;28;20437;-45
2023/09/09 05:21:53;;;;;;;18.97;13.60;;;17.80;99.90;;;;;;5153696;28;20208;-45
2023/09/09 05:24:23;;;;;;;16.03;12.67;;;17.80;99.90;;;;;;5159077;28;20531;-46
2023/09/09 05:26:54;;;;;;;20.30;13.17;;;17.70;99.90;;;;;;5148704;28;20253;-45
2023/09/09 05:29:25;;;;;;;18.83;13.40;;;17.80;99.90;;;;;;5158318;28;20185;-46
2023/09/09 05:31:59;;;;;;;17.07;14.03;;;17.80;99.90;;;;;;5156564;28;20209;-46
2023/09/09 05:34:29;;;;;;;17.50;11.67;;;17.80;99.90;;;;;;5161679;28;20240;-46
2023/09/09 05:37:00;;;;;;;16.90;12.60;;;17.90;99.90;;;;;;5161297;28;21028;-46
2023/09/09 05:39:31;;;;;;;17.20;12.60;;;17.90;99.90;;;;;;5161911;28;20228;-46
2023/09/09 05:42:03;;;;;;;15.50;12.03;;;18.00;99.90;;;;;;5097077;28;1607143;-46
2023/09/09 05:44:36;;;;;;;15.03;11.93;;;18.00;99.90;;;;;;5144554;28;20443;-46
2023/09/09 05:47:08;;;;;;;19.13;12.50;;;18.20;99.90;;;;;;5153772;28;20452;-46
2023/09/09 05:49:39;;;;;;;13.87;10.23;;;18.30;99.90;;;;;;5157875;28;20501;-46
2023/09/09 05:52:11;;;;;;;15.40;10.83;;;18.40;99.90;;;;;;5152054;28;20464;-45
2023/09/09 05:54:42;;;;;;;16.90;11.20;;;18.70;99.90;;;;;;5162185;28;20503;-45
2023/09/09 05:57:13;;;;;;;14.73;10.63;;;19.20;99.90;;;;;;5157799;28;20441;-45
2023/09/09 05:59:44;;;;;;;13.53;10.67;;;20.80;99.90;;;;;;5166223;28;20445;-46
2023/09/09 06:02:15;;;;;;;13.83;10.27;;;23.20;99.90;;;;;;5155222;28;20774;-47
2023/09/09 06:04:46;;;;;;;10.03;9.03;;;24.90;99.90;;;;;;5156272;28;20527;-47
2023/09/09 06:07:22;;;;;;;12.73;8.30;;;26.30;95.30;;;;;;5158606;28;20240;-46
2023/09/09 06:09:53;;;;;;;19.20;9.60;;;27.20;90.00;;;;;;5156259;28;20501;-46
2023/09/09 06:12:24;;;;;;;10.57;9.00;;;28.10;80.40;;;;;;5160076;28;20468;-46
2023/09/09 06:14:55;;;;;;;12.03;9.50;;;28.60;74.00;;;;;;5157095;28;20728;-46
2023/09/09 06:17:26;;;;;;;10.83;8.70;;;28.80;69.60;;;;;;5151037;28;20189;-46
2023/09/09 06:19:57;;;;;;;10.80;8.80;;;29.50;65.70;;;;;;5158284;28;20240;-46
2023/09/09 06:22:27;;;;;;;9.07;8.20;;;30.00;62.10;;;;;;5150567;28;20202;-47
2023/09/09 06:24:58;;;;;;;10.97;7.93;;;31.00;58.60;;;;;;5157048;28;20444;-47
2023/09/09 06:27:29;;;;;;;9.40;8.10;;;31.10;55.90;;;;;;5148458;28;20192;-47
2023/09/09 06:30:00;;;;;;;18.53;9.10;;;30.70;54.80;;;;;;5151175;28;20256;-47
2023/09/09 06:32:31;;;;;;;10.20;7.40;;;30.80;55.40;;;;;;5147809;28;20542;-47
2023/09/09 06:35:03;;;;;;;12.23;8.10;;;31.00;54.50;;;;;;5154647;28;20470;-46
2023/09/09 06:37:33;;;;;;;11.03;7.47;;;31.80;52.80;;;;;;5158705;28;20185;-46
2023/09/09 06:40:05;;;;;;;12.10;7.53;;;32.00;51.10;;;;;;5154511;28;20518;-49
2023/09/09 06:42:35;;;;;;;8.17;7.40;;;32.00;50.40;;;;;;5156887;28;20209;-48
2023/09/09 06:45:07;;;;;;;9.97;7.27;;;32.10;49.20;;;;;;5155431;28;20472;-47
2023/09/09 06:47:38;;;;;;;10.97;6.90;;;32.80;49.00;;;;;;5154353;28;20199;-46
2023/09/09 06:50:09;;;;;;;15.23;7.40;;;34.10;46.70;;;;;;5146579;28;20440;-48
2023/09/09 06:52:40;;;;;;;11.13;7.60;;;34.80;44.30;;;;;;5159057;28;20443;-47
2023/09/09 06:55:10;;;;;;;9.53;7.23;;;34.60;43.70;;;;;;5150511;28;20213;-47
2023/09/09 06:57:41;;;;;;;11.90;8.27;;;34.20;43.50;;;;;;5142091;28;20177;-48
2023/09/09 07:00:12;;;;;;;8.40;7.10;;;33.50;44.40;;;;;;5148569;28;20197;-45
2023/09/09 07:02:43;;;;;;;9.50;7.03;;;32.90;45.00;;;;;;5152821;28;20268;-46
2023/09/09 07:05:16;;;;;;;9.13;7.60;;;33.30;44.60;;;;;;5156627;28;21099;-46
2023/09/09 07:07:47;;;;;;;10.53;6.90;;;33.90;43.90;;;;;;5152803;28;20184;-47
2023/09/09 07:10:18;;;;;;;11.90;6.77;;;34.40;42.90;;;;;;5147400;28;20439;-48
2023/09/09 07:12:51;;;;;;;13.40;7.90;;;34.20;42.70;;;;;;5153329;28;20243;-47
2023/09/09 07:15:22;;;;;;;6.90;6.20;;;33.90;42.80;;;;;;5159342;28;20216;-47
2023/09/09 07:17:54;;;;;;;7.67;6.67;;;33.30;43.80;;;;;;5156544;28;20440;-48
2023/09/09 07:20:25;;;;;;;9.80;7.03;;;33.60;43.60;;;;;;5151009;28;20270;-48
2023/09/09 07:22:56;;;;;;;8.40;6.90;;;34.40;43.10;;;;;;5150315;28;20435;-48
2023/09/09 07:25:26;;;;;;;9.00;6.43;;;35.10;41.40;;;;;;5156320;28;20192;-47
2023/09/09 07:27:57;;;;;;;13.10;7.00;;;34.50;41.80;;;;;;5151600;28;20219;-48
2023/09/09 07:30:28;;;;;;;7.30;6.60;;;34.80;41.70;;;;;;5153735;28;20986;-47
2023/09/09 07:32:59;;;;;;;5.47;4.97;;;34.50;41.30;;;;;;5156039;28;20248;-47
2023/09/09 07:35:30;;;;;;;12.77;7.57;;;34.60;41.70;;;;;;5151912;28;20216;-47
2023/09/09 07:38:00;;;;;;;9.17;7.23;;;34.30;41.40;;;;;;5153342;28;20232;-46
2023/09/09 07:40:31;;;;;;;11.30;7.30;;;34.20;42.00;;;;;;5155069;28;20242;-47
2023/09/09 07:43:02;;;;;;;7.03;6.30;;;34.20;42.20;;;;;;5149753;28;20185;-46
2023/09/09 07:45:33;;;;;;;9.47;7.07;;;34.20;41.80;;;;;;5155228;28;20457;-46
2023/09/09 07:48:04;;;;;;;9.53;7.00;;;34.20;42.10;;;;;;5152731;28;20885;-47
2023/09/09 07:50:35;;;;;;;8.03;6.93;;;34.50;41.50;;;;;;5151418;28;20212;-47
2023/09/09 07:53:06;;;;;;;8.93;6.30;;;34.60;41.30;;;;;;5152457;28;20491;-48
2023/09/09 07:55:37;;;;;;;9.80;6.90;;;35.00;41.20;;;;;;5155062;28;20216;-48
2023/09/09 07:58:10;;;;;;;8.93;7.50;;;35.70;39.70;;;;;;5150652;28;20870;-49
2023/09/09 08:00:41;;;;;;;9.60;7.30;;;35.70;39.00;;;;;;5154307;28;20769;-48
2023/09/09 08:03:14;;;;;;;6.30;5.70;;;35.80;38.90;;;;;;5160447;28;20304;-49
2023/09/09 08:05:45;;;;;;;8.83;6.67;;;35.90;38.90;;;;;;5155312;28;20692;-48
2023/09/09 08:08:16;;;;;;;8.93;6.33;;;35.80;39.20;;;;;;5158146;28;20253;-50
2023/09/09 08:10:49;;;;;;;6.10;5.13;;;34.80;39.80;;;;;;5154011;28;20286;-48
2023/09/09 08:13:20;;;;;;;6.27;5.70;;;34.20;41.20;;;;;;5158424;28;20207;-48
2023/09/09 08:15:51;;;;;;;6.27;5.63;;;33.80;42.20;;;;;;5150679;28;20205;-49
2023/09/09 08:18:21;;;;;;;7.40;6.07;;;33.60;42.40;;;;;;5158574;28;20184;-49
2023/09/09 08:20:53;;;;;;;5.60;5.20;;;32.10;43.90;;;;;;5158801;28;20668;-47
2023/09/09 08:23:24;;;;;;;9.20;5.30;;;30.60;46.60;;;;;;5154876;28;20195;-48
2023/09/09 08:25:55;;;;;;;5.33;4.87;;;29.60;48.10;;;;;;5153840;28;20436;-47
2023/09/09 08:28:26;;;;;;;9.93;5.33;;;29.40;49.10;;;;;;5167186;28;20181;-48
2023/09/09 08:30:58;;;;;;;9.20;5.30;;;29.40;48.90;;;;;;5152836;28;20507;-47
2023/09/09 08:33:29;;;;;;;6.70;5.10;;;29.10;49.30;;;;;;5149409;28;20664;-47
2023/09/09 08:36:05;;;;;;;7.70;5.00;;;28.70;50.10;;;;;;5143386;28;20457;-48
2023/09/09 08:38:36;;;;;;;4.50;4.10;;;28.40;50.80;;;;;;5154446;28;20281;-48
2023/09/09 08:41:54;;;;;;;13.10;5.27;;;28.20;50.90;;;;;;5157550;28;20602;-48
2023/09/09 08:44:54;;;;;;;5.40;4.90;;;28.10;51.00;;;;;;5107776;29;20250;-47
2023/09/09 08:47:29;;;;;;;5.00;4.70;;;27.70;51.90;;;;;;5154819;28;20433;-48
2023/09/09 08:50:02;;;;;;;18.47;5.40;;;27.60;52.30;;;;;;5151809;28;20792;-47
2023/09/09 08:52:37;;;;;;;6.00;5.47;;;27.50;52.40;;;;;;5154832;28;20459;-48
2023/09/09 08:55:08;;;;;;;5.50;5.00;;;27.40;52.70;;;;;;5153770;28;21002;-47
2023/09/09 08:57:39;;;;;;;10.60;5.37;;;27.30;53.10;;;;;;5159127;28;20451;-47
2023/09/09 09:00:13;;;;;;;7.53;5.23;;;27.30;53.10;;;;;;5152941;28;20786;-47
2023/09/09 09:02:46;;;;;;;7.43;5.17;;;26.90;53.90;;;;;;5155087;28;21004;-47
2023/09/09 09:05:18;;;;;;;8.97;5.60;;;26.80;54.00;;;;;;5154050;28;20859;-47
2023/09/09 09:07:49;;;;;;;12.93;5.30;;;26.70;54.10;;;;;;5154192;28;20940;-48
2023/09/09 09:10:23;;;;;;;7.90;4.60;;;26.50;54.80;;;;;;5158742;28;20448;-48
2023/09/09 09:12:54;;;;;;;6.97;5.40;;;26.50;54.90;;;;;;5155302;28;20445;-47
2023/09/09 09:15:25;;;;;;;5.73;4.97;;;26.40;54.80;;;;;;5154907;28;20456;-47
2023/09/09 09:17:56;;;;;;;4.83;4.43;;;26.30;55.30;;;;;;5159358;28;20185;-48
2023/09/09 09:20:28;;;;;;;12.47;5.00;;;26.30;55.30;;;;;;5156674;28;20461;-48
2023/09/09 09:23:01;;;;;;;19.53;4.87;;;26.50;55.00;;;;;;5141725;28;20271;-48
2023/09/09 09:25:44;;;;;;;5.47;4.73;;;26.50;54.50;;;;;;5151607;28;20452;-48
2023/09/09 09:28:15;;;;;;;12.33;4.97;;;26.50;54.20;;;;;;5159579;28;20437;-47
2023/09/09 09:30:47;;;;;;;5.47;4.37;;;26.60;54.20;;;;;;5159401;28;20998;-47
2023/09/09 09:33:23;;;;;;;5.60;4.60;;;26.70;54.50;;;;;;5161670;28;20451;-47
2023/09/09 09:35:54;;;;;;;5.27;4.47;;;26.80;54.50;;;;;;5152012;28;20446;-47
2023/09/09 09:38:25;;;;;;;7.23;4.63;;;27.00;53.70;;;;;;5150333;28;20432;-48
2023/09/09 09:40:59;;;;;;;4.67;4.27;;;26.90;53.50;;;;;;5149007;28;20340;-47
2023/09/09 09:43:32;;;;;;;13.70;5.13;;;26.80;53.20;;;;;;5156775;28;20185;-46
2023/09/09 09:46:16;;;;;;;20.03;5.57;;;26.90;52.90;;;;;;5155865;28;20970;-47
2023/09/09 09:48:48;;;;;;;6.50;5.40;;;27.10;53.50;;;;;;5159705;28;20519;-47
2023/09/09 09:51:19;;;;;;;5.20;4.40;;;27.10;52.40;;;;;;5158492;28;20520;-47
2023/09/09 09:53:56;;;;;;;5.30;4.80;;;27.10;52.20;;;;;;5158046;28;20655;-47
2023/09/09 09:56:27;;;;;;;6.13;4.50;;;27.20;52.00;;;;;;5153159;28;20331;-47
2023/09/09 09:59:07;;;;;;;5.20;4.10;;;27.40;51.90;;;;;;5159926;28;20445;-47
2023/09/09 10:01:39;;;;;;;5.83;5.00;;;27.40;51.70;;;;;;5157320;28;20374;-47
2023/09/09 10:04:15;;;;;;;4.90;4.30;;;27.50;52.20;;;;;;5153016;28;20443;-47
2023/09/09 10:06:48;;;;;;;8.20;4.77;;;27.50;51.80;;;;;;5159385;28;20431;-47
2023/09/09 10:09:38;;;;;;;5.57;4.63;;;27.50;51.60;;;;;;5138506;28;20954;-47
2023/09/09 10:12:26;;;;;;;4.43;4.13;;;27.60;52.00;;;;;;5158081;28;20570;-48
2023/09/09 10:14:58;;;;;;;10.10;4.47;;;27.60;52.10;;;;;;5156502;28;20802;-48
2023/09/09 10:17:30;;;;;;;6.20;4.50;;;27.60;52.00;;;;;;5152767;28;20525;-48
2023/09/09 10:20:01;;;;;;;4.70;4.30;;;27.60;51.80;;;;;;5156433;28;20625;-46
2023/09/09 10:22:35;;;;;;;5.03;4.50;;;27.60;51.20;;;;;;5152718;28;20464;-46
2023/09/09 10:25:10;;;;;;;6.10;4.77;;;27.60;51.40;;;;;;5153451;28;20445;-47
2023/09/09 10:27:41;;;;;;;6.83;4.17;;;27.80;51.10;;;;;;5156492;28;20436;-49
2023/09/09 10:30:12;;;;;;;6.70;4.43;;;27.90;50.00;;;;;;5151757;28;20531;-47
2023/09/09 10:32:45;;;;;;;5.40;3.70;;;27.90;50.30;;;;;;5159345;28;20440;-47
2023/09/09 10:35:18;;;;;;;6.70;4.13;;;28.00;49.20;;;;;;5154679;28;20472;-48
2023/09/09 10:37:51;;;;;;;4.47;4.10;;;28.10;48.90;;;;;;5160165;28;20461;-47
2023/09/09 10:40:25;;;;;;;4.10;3.80;;;28.10;48.00;;;;;;5156701;28;20440;-48
2023/09/09 10:42:56;;;;;;;5.30;4.03;;;28.20;48.60;;;;;;5157699;28;20450;-47
2023/09/09 10:45:32;;;;;;;5.53;4.73;;;28.40;48.20;;;;;;5155276;28;20444;-49
2023/09/09 10:48:10;;;;;;;3.30;3.00;;;28.40;47.90;;;;;;5137106;28;20626;-48
2023/09/09 10:50:44;;;;;;;3.60;3.30;;;28.40;47.50;;;;;;5153828;28;20463;-47
2023/09/09 10:53:21;;;;;;;4.90;3.80;;;28.40;46.50;;;;;;5159399;28;20862;-48
2023/09/09 10:55:55;;;;;;;4.00;3.70;;;28.30;46.60;;;;;;5154127;28;20470;-50
2023/09/09 10:58:38;;;;;;;4.40;4.00;;;28.30;46.40;;;;;;5151899;28;20455;-47
2023/09/09 11:01:21;;;;;;;8.80;3.33;;;28.40;46.50;;;;;;5152205;28;20537;-48
2023/09/09 11:03:52;;;;;;;5.13;4.03;;;28.30;46.20;;;;;;5153221;28;20443;-48
2023/09/09 11:06:33;;;;;;;4.37;3.17;;;28.30;45.80;;;;;;5154449;28;20436;-48
2023/09/09 11:09:10;;;;;;;3.70;3.43;;;28.50;46.10;;;;;;5151825;28;20802;-49
2023/09/09 11:11:43;;;;;;;4.30;4.00;;;28.60;46.10;;;;;;5152463;28;20464;-47
2023/09/09 11:14:19;;;;;;;7.63;3.97;;;28.70;45.50;;;;;;5155465;28;20465;-48
2023/09/09 11:16:54;;;;;;;5.23;3.20;;;28.80;45.20;;;;;;5154365;28;20424;-47
2023/09/09 11:19:26;;;;;;;5.03;3.97;;;28.60;45.20;;;;;;5157214;28;20439;-49
2023/09/09 11:21:59;;;;;;;19.73;7.90;;;28.70;45.00;;;;;;5153516;28;20460;-48
2023/09/09 11:24:33;;;;;;;5.50;5.00;;;28.70;45.30;;;;;;5137282;28;20539;-48
2023/09/09 11:27:05;;;;;;;7.43;3.60;;;28.80;46.10;;;;;;5151705;28;20510;-48
2023/09/09 11:29:36;;;;;;;6.20;3.47;;;28.80;46.40;;;;;;5155728;28;21320;-50
2023/09/09 11:32:10;;;;;;;11.00;3.40;;;28.90;45.70;;;;;;5159090;28;20459;-51
2023/09/09 11:34:42;;;;;;;7.33;4.30;;;28.90;45.50;;;;;;5158411;28;20212;-48
2023/09/09 11:37:14;;;;;;;5.33;4.93;;;28.90;46.30;;;;;;5161493;28;20437;-52
2023/09/09 11:39:45;;;;;;;4.47;3.63;;;29.10;45.80;;;;;;5157322;28;20942;-53
2023/09/09 11:42:16;;;;;;;5.03;3.60;;;28.90;45.50;;;;;;5159783;28;20475;-51
2023/09/09 11:44:47;;;;;;;3.40;3.10;;;29.00;46.10;;;;;;5153383;28;20189;-50
2023/09/09 11:47:18;;;;;;;3.40;3.10;;;28.90;45.30;;;;;;5155594;28;20186;-49
2023/09/09 11:49:49;;;;;;;8.47;3.30;;;28.70;45.50;;;;;;5158220;28;20436;-51
2023/09/09 11:52:21;;;;;;;4.13;3.03;;;28.70;46.00;;;;;;5155966;28;20455;-50
2023/09/09 11:54:52;;;;;;;3.73;3.43;;;28.70;45.70;;;;;;5154132;28;20463;-50
2023/09/09 11:57:22;;;;;;;3.83;3.00;;;28.90;45.60;;;;;;5155212;28;20439;-49
2023/09/09 11:59:57;;;;;;;3.00;2.80;;;28.90;45.70;;;;;;5157392;28;20272;-49
2023/09/09 12:02:28;;;;;;;9.73;3.80;;;28.90;45.70;;;;;;5156476;28;20597;-49
2023/09/09 12:05:01;;;;;;;5.90;3.37;;;28.80;45.00;;;;;;5158376;28;20538;-50
2023/09/09 12:07:35;;;;;;;3.90;3.60;;;28.90;44.60;;;;;;5153117;28;20188;-50
2023/09/09 12:10:12;;;;;;;4.10;3.23;;;28.90;44.20;;;;;;5158151;28;20427;-50
2023/09/09 12:12:47;;;;;;;4.43;3.33;;;29.00;45.00;;;;;;5154435;28;20436;-49
2023/09/09 12:15:18;;;;;;;8.43;3.10;;;29.20;44.50;;;;;;5154568;28;20762;-49
2023/09/09 12:17:49;;;;;;;3.43;3.20;;;29.20;43.60;;;;;;5159727;28;20528;-49
2023/09/09 12:20:20;;;;;;;7.90;3.50;;;29.20;42.90;;;;;;5158142;28;20429;-48
2023/09/09 12:22:52;;;;;;;8.00;3.57;;;29.10;42.90;;;;;;5157477;28;20464;-49
2023/09/09 12:25:35;;;;;;;5.83;3.30;;;29.10;42.50;;;;;;5157664;28;20180;-49
2023/09/09 12:28:16;;;;;;;4.07;3.73;;;29.00;42.40;;;;;;5160016;28;20496;-49
2023/09/09 12:30:49;;;;;;;3.90;3.50;;;29.00;42.40;;;;;;5157784;28;20468;-50
2023/09/09 12:33:19;;;;;;;5.33;3.50;;;29.10;41.80;;;;;;5158544;28;20448;-49
2023/09/09 12:35:51;;;;;;;4.10;3.70;;;29.10;41.90;;;;;;5161752;28;20473;-49
2023/09/09 12:38:22;;;;;;;4.07;3.60;;;29.10;41.70;;;;;;5160416;28;20572;-49
2023/09/09 12:41:01;;;;;;;2.90;2.70;;;29.30;41.70;;;;;;5159773;28;20476;-48
2023/09/09 12:43:34;;;;;;;3.50;3.20;;;29.30;41.50;;;;;;5158422;28;20188;-49
2023/09/09 12:46:06;;;;;;;3.10;2.80;;;29.30;41.50;;;;;;5157002;28;20424;-49
2023/09/09 12:48:56;;;;;;;3.80;3.50;;;29.20;41.70;;;;;;5158568;28;20932;-50
2023/09/09 12:51:29;;;;;;;3.23;2.97;;;29.10;41.70;;;;;;5159443;28;20458;-49
2023/09/09 12:54:00;;;;;;;3.43;3.13;;;29.10;41.90;;;;;;5160424;28;20471;-48
2023/09/09 12:56:31;;;;;;;8.33;3.70;;;29.10;42.10;;;;;;5156166;28;20503;-50
2023/09/09 12:59:09;;;;;;;2.77;2.60;;;29.10;42.30;;;;;;5158576;28;20432;-49
2023/09/09 13:01:40;;;;;;;4.53;3.10;;;29.10;42.00;;;;;;5154468;28;20204;-50
2023/09/09 13:04:11;;;;;;;4.80;4.10;;;29.10;42.40;;;;;;5155445;28;20442;-50
2023/09/09 13:06:42;;;;;;;11.47;3.23;;;29.20;42.50;;;;;;5155502;28;20193;-50
2023/09/09 13:09:13;;;;;;;3.43;3.13;;;29.20;42.60;;;;;;5157048;28;20193;-50